Time,TemperatureF,DewpointF,PressureIn,WindDirection,WindDirectionDegrees,WindSpeedMPH,WindSpeedGustMPH,Humidity,HourlyPrecipIn,Conditions,Clouds,dailyrainin,SoftwareType,DateUTC
2013-05-09 00:02:00,57.8,49.0,29.95,ESE,102,0.0,0.0,73,0.00,,,0.00,weatherlink.com 1.10,2013-05-09 05:02:00,
2013-05-09 00:17:00,57.3,49.0,29.95,ESE,102,0.0,0.0,75,0.00,,,0.00,weatherlink.com 1.10,2013-05-09 05:17:00,
2013-05-09 00:32:00,56.8,49.0,29.95,ESE,102,0.0,0.0,76,0.00,,,0.00,weatherlink.com 1.10,2013-05-09 05:32:00,
2013-05-09 00:47:00,56.4,49.0,29.94,ESE,102,0.0,0.0,76,0.00,,,0.00,weatherlink.com 1.10,2013-05-09 05:47:00,
2013-05-09 01:02:00,56.1,49.0,29.94,ESE,102,0.0,0.0,76,0.00,,,0.00,weatherlink.com 1.10,2013-05-09 06:02:00,
2013-05-09 01:17:00,55.8,49.0,29.94,ESE,102,0.0,0.0,78,0.00,,,0.00,weatherlink.com 1.10,2013-05-09 06:17:00,
2013-05-09 01:33:00,55.4,49.0,29.94,ESE,102,0.0,0.0,78,0.00,,,0.00,weatherlink.com 1.10,2013-05-09 06:33:00,
2013-05-09 01:48:00,55.3,48.0,29.93,ESE,102,0.0,0.0,77,0.00,,,0.00,weatherlink.com 1.10,2013-05-09 06:48:00,
2013-05-09 02:03:00,55.3,49.0,29.93,ESE,102,0.0,2.0,78,0.00,,,0.00,weatherlink.com 1.10,2013-05-09 07:03:00,
2013-05-09 02:18:00,55.3,49.0,29.93,ESE,102,0.0,1.0,80,0.00,,,0.00,weatherlink.com 1.10,2013-05-09 07:18:00,
2013-05-09 02:33:00,55.3,49.0,29.93,ESE,102,0.0,2.0,80,0.00,,,0.00,weatherlink.com 1.10,2013-05-09 07:33:00,
2013-05-09 02:48:00,56.2,50.0,29.94,ESE,102,0.0,0.0,80,0.00,,,0.00,weatherlink.com 1.10,2013-05-09 07:48:00,
2013-05-09 03:03:00,57.1,51.0,29.94,ENE,78,2.0,2.0,80,0.00,,,0.00,weatherlink.com 1.10,2013-05-09 08:03:00,
2013-05-09 03:18:00,57.5,51.0,29.94,NNW,344,0.0,2.0,78,0.00,,,0.00,weatherlink.com 1.10,2013-05-09 08:18:00,
2013-05-09 03:33:00,57.5,51.0,29.94,NNW,344,1.0,2.0,79,0.00,,,0.00,weatherlink.com 1.10,2013-05-09 08:33:00,
2013-05-09 03:49:00,57.5,51.0,29.94,NNW,344,0.0,1.0,79,0.00,,,0.00,weatherlink.com 1.10,2013-05-09 08:49:00,
2013-05-09 04:03:00,57.5,51.0,29.93,NNW,344,0.0,2.0,79,0.00,,,0.00,weatherlink.com 1.10,2013-05-09 09:03:00,
2013-05-09 04:18:00,57.6,52.0,29.93,NNW,344,1.0,1.0,81,0.00,,,0.00,weatherlink.com 1.10,2013-05-09 09:18:00,
2013-05-09 04:33:00,57.1,52.0,29.93,NNW,344,0.0,2.0,82,0.00,,,0.00,weatherlink.com 1.10,2013-05-09 09:33:00,
2013-05-09 04:48:00,57.2,51.0,29.93,NNW,344,0.0,1.0,81,0.00,,,0.00,weatherlink.com 1.10,2013-05-09 09:48:00,
2013-05-09 05:03:00,57.3,52.0,29.93,NNW,344,0.0,1.0,81,0.00,,,0.00,weatherlink.com 1.10,2013-05-09 10:03:00,
2013-05-09 05:18:00,57.0,52.0,29.92,NNW,344,0.0,2.0,83,0.00,,,0.00,weatherlink.com 1.10,2013-05-09 10:18:00,
2013-05-09 05:33:00,56.9,52.0,29.93,NNW,344,0.0,1.0,83,0.00,,,0.00,weatherlink.com 1.10,2013-05-09 10:33:00,
2013-05-09 05:48:00,57.1,53.0,29.92,NNW,344,0.0,2.0,86,0.00,,,0.00,weatherlink.com 1.10,2013-05-09 10:48:00,
2013-05-09 06:03:00,56.9,53.0,29.92,NNW,344,0.0,2.0,86,0.00,,,0.00,weatherlink.com 1.10,2013-05-09 11:03:00,
2013-05-09 06:18:00,57.2,52.0,29.93,NNW,344,0.0,2.0,84,0.00,,,0.00,weatherlink.com 1.10,2013-05-09 11:18:00,
2013-05-09 06:33:00,57.4,53.0,29.93,NNW,344,0.0,0.0,84,0.00,,,0.00,weatherlink.com 1.10,2013-05-09 11:33:00,
2013-05-09 06:48:00,57.3,53.0,29.93,NNW,344,0.0,2.0,84,0.00,,,0.00,weatherlink.com 1.10,2013-05-09 11:48:00,
2013-05-09 07:03:00,57.6,54.0,29.93,NNW,341,1.0,1.0,86,0.00,,,0.00,weatherlink.com 1.10,2013-05-09 12:03:00,
2013-05-09 07:18:00,57.8,53.0,29.93,NNW,341,0.0,2.0,85,0.00,,,0.00,weatherlink.com 1.10,2013-05-09 12:18:00,
2013-05-09 07:33:00,58.3,54.0,29.93,NNW,341,0.0,0.0,85,0.00,,,0.00,weatherlink.com 1.10,2013-05-09 12:33:00,
2013-05-09 07:48:00,58.8,55.0,29.93,NNW,341,0.0,1.0,86,0.00,,,0.00,weatherlink.com 1.10,2013-05-09 12:48:00,
2013-05-09 08:03:00,59.1,55.0,29.93,NNW,341,0.0,0.0,87,0.00,,,0.00,weatherlink.com 1.10,2013-05-09 13:03:00,
2013-05-09 08:18:00,59.4,54.0,29.93,NNW,341,0.0,0.0,83,0.00,,,0.00,weatherlink.com 1.10,2013-05-09 13:18:00,
2013-05-09 08:33:00,60.1,55.0,29.93,NNW,341,0.0,1.0,82,0.00,,,0.00,weatherlink.com 1.10,2013-05-09 13:33:00,
2013-05-09 08:48:00,61.2,55.0,29.94,NW,319,1.0,3.0,80,0.00,,,0.00,weatherlink.com 1.10,2013-05-09 13:48:00,
2013-05-09 09:03:00,62.3,55.0,29.94,West,277,1.0,3.0,78,0.00,,,0.00,weatherlink.com 1.10,2013-05-09 14:03:00,
2013-05-09 09:18:00,63.4,55.0,29.93,West,278,0.0,1.0,75,0.00,,,0.00,weatherlink.com 1.10,2013-05-09 14:18:00,
2013-05-09 09:33:00,64.4,56.0,29.93,West,271,0.0,3.0,73,0.00,,,0.00,weatherlink.com 1.10,2013-05-09 14:33:00,
2013-05-09 09:48:00,64.9,56.0,29.94,West,271,0.0,1.0,72,0.00,,,0.00,weatherlink.com 1.10,2013-05-09 14:48:00,
2013-05-09 10:03:00,65.4,56.0,29.94,West,270,0.0,2.0,72,0.00,,,0.00,weatherlink.com 1.10,2013-05-09 15:03:00,
2013-05-09 10:18:00,65.9,57.0,29.94,West,272,0.0,2.0,73,0.00,,,0.00,weatherlink.com 1.10,2013-05-09 15:18:00,
2013-05-09 10:33:00,66.6,57.0,29.94,WSW,247,0.0,2.0,72,0.00,,,0.00,weatherlink.com 1.10,2013-05-09 15:33:00,
2013-05-09 10:48:00,67.1,58.0,29.93,WSW,248,0.0,0.0,73,0.00,,,0.00,weatherlink.com 1.10,2013-05-09 15:48:00,
2013-05-09 11:03:00,67.1,60.0,29.93,WSW,244,1.0,2.0,79,0.00,,,0.00,weatherlink.com 1.10,2013-05-09 16:03:00,
2013-05-09 11:18:00,66.2,60.0,29.93,SW,225,0.0,1.0,79,0.00,,,0.00,weatherlink.com 1.10,2013-05-09 16:18:00,
2013-05-09 11:33:00,66.5,61.0,29.92,West,264,0.0,0.0,81,0.00,,,0.00,weatherlink.com 1.10,2013-05-09 16:33:00,
2013-05-09 11:48:00,67.6,58.0,29.92,NNW,331,0.0,2.0,71,0.00,,,0.00,weatherlink.com 1.10,2013-05-09 16:48:00,
2013-05-09 12:03:00,68.3,58.0,29.92,NE,36,0.0,2.0,70,0.00,,,0.00,weatherlink.com 1.10,2013-05-09 17:03:00,
2013-05-09 12:18:00,68.4,57.0,29.91,NE,36,0.0,1.0,68,0.00,,,0.00,weatherlink.com 1.10,2013-05-09 17:18:00,
2013-05-09 12:34:00,69.0,58.0,29.91,NNE,14,0.0,2.0,68,0.00,,,0.00,weatherlink.com 1.10,2013-05-09 17:34:00,
2013-05-09 12:49:00,70.9,58.0,29.91,NE,53,2.0,3.0,63,0.00,,,0.00,weatherlink.com 1.10,2013-05-09 17:49:00,
2013-05-09 13:04:00,71.4,58.0,29.90,ENE,77,0.0,3.0,62,0.00,,,0.00,weatherlink.com 1.10,2013-05-09 18:04:00,
2013-05-09 13:19:00,71.7,57.0,29.90,ENE,66,0.0,3.0,60,0.00,,,0.00,weatherlink.com 1.10,2013-05-09 18:19:00,
2013-05-09 13:34:00,71.8,57.0,29.90,ESE,106,0.0,3.0,61,0.00,,,0.00,weatherlink.com 1.10,2013-05-09 18:34:00,
2013-05-09 13:49:00,71.7,57.0,29.90,SSE,147,2.0,3.0,61,0.00,,,0.00,weatherlink.com 1.10,2013-05-09 18:49:00,
2013-05-09 14:04:00,71.4,57.0,29.90,SE,138,2.0,6.0,61,0.00,,,0.00,weatherlink.com 1.10,2013-05-09 19:04:00,
2013-05-09 14:19:00,70.9,58.0,29.89,SE,146,0.0,4.0,63,0.00,,,0.00,weatherlink.com 1.10,2013-05-09 19:19:00,
2013-05-09 14:34:00,71.3,58.0,29.88,ESE,119,3.0,4.0,63,0.00,,,0.00,weatherlink.com 1.10,2013-05-09 19:34:00,
2013-05-09 14:49:00,71.9,57.0,29.87,SSE,147,4.0,9.0,60,0.00,,,0.00,weatherlink.com 1.10,2013-05-09 19:49:00,
2013-05-09 15:04:00,68.5,60.0,29.89,SSE,151,3.0,9.0,74,0.02,,,0.02,weatherlink.com 1.10,2013-05-09 20:04:00,
2013-05-09 15:19:00,65.2,59.0,29.87,South,181,1.0,10.0,81,0.03,,,0.03,weatherlink.com 1.10,2013-05-09 20:19:00,
2013-05-09 15:34:00,65.4,59.0,29.86,SSE,153,2.0,6.0,79,0.03,,,0.03,weatherlink.com 1.10,2013-05-09 20:34:00,
2013-05-09 15:49:00,65.0,60.0,29.86,SSE,154,6.0,10.0,83,0.04,,,0.04,weatherlink.com 1.10,2013-05-09 20:49:00,
2013-05-09 16:04:00,64.3,59.0,29.87,SE,126,4.0,7.0,84,0.02,,,0.04,weatherlink.com 1.10,2013-05-09 21:04:00,
2013-05-09 16:19:00,63.5,59.0,29.87,SSE,159,0.0,9.0,85,0.01,,,0.04,weatherlink.com 1.10,2013-05-09 21:19:00,
2013-05-09 16:34:00,63.2,59.0,29.86,SE,127,2.0,5.0,86,0.01,,,0.04,weatherlink.com 1.10,2013-05-09 21:34:00,
2013-05-09 16:49:00,63.1,59.0,29.86,SE,146,2.0,5.0,86,0.00,,,0.04,weatherlink.com 1.10,2013-05-09 21:49:00,
2013-05-09 17:04:00,63.0,59.0,29.86,SSE,164,3.0,3.0,88,0.00,,,0.04,weatherlink.com 1.10,2013-05-09 22:04:00,
2013-05-09 17:19:00,63.0,60.0,29.85,SSE,165,2.0,8.0,89,0.01,,,0.05,weatherlink.com 1.10,2013-05-09 22:19:00,
2013-05-09 17:34:00,63.0,60.0,29.85,SE,136,2.0,6.0,89,0.01,,,0.05,weatherlink.com 1.10,2013-05-09 22:34:00,
2013-05-09 17:49:00,62.5,59.0,29.84,SSE,157,3.0,6.0,87,0.02,,,0.06,weatherlink.com 1.10,2013-05-09 22:49:00,
2013-05-09 18:04:00,62.0,59.0,29.84,SE,146,0.0,4.0,88,0.02,,,0.06,weatherlink.com 1.10,2013-05-09 23:04:00,
2013-05-09 18:19:00,61.5,58.0,29.84,SSE,150,2.0,3.0,89,0.01,,,0.06,weatherlink.com 1.10,2013-05-09 23:19:00,
2013-05-09 18:34:00,61.3,59.0,29.84,SSE,147,0.0,2.0,91,0.02,,,0.07,weatherlink.com 1.10,2013-05-09 23:34:00,
2013-05-09 18:49:00,61.3,59.0,29.83,SE,128,1.0,3.0,93,0.01,,,0.07,weatherlink.com 1.10,2013-05-09 23:49:00,
2013-05-09 19:04:00,61.2,59.0,29.83,SE,128,0.0,2.0,93,0.01,,,0.07,weatherlink.com 1.10,2013-05-10 00:04:00,
2013-05-09 19:19:00,61.3,60.0,29.83,SE,128,1.0,2.0,94,0.01,,,0.07,weatherlink.com 1.10,2013-05-10 00:19:00,
2013-05-09 19:34:00,61.3,60.0,29.83,SE,128,1.0,2.0,94,0.00,,,0.07,weatherlink.com 1.10,2013-05-10 00:34:00,
2013-05-09 19:49:00,61.3,60.0,29.84,ESE,122,0.0,3.0,94,0.00,,,0.07,weatherlink.com 1.10,2013-05-10 00:49:00,
2013-05-09 20:04:00,61.1,59.0,29.84,ESE,122,1.0,2.0,94,0.00,,,0.07,weatherlink.com 1.10,2013-05-10 01:04:00,
2013-05-09 20:19:00,61.0,60.0,29.84,East,94,1.0,5.0,95,0.05,,,0.12,weatherlink.com 1.10,2013-05-10 01:19:00,
2013-05-09 20:34:00,60.9,60.0,29.83,East,91,3.0,5.0,95,0.06,,,0.13,weatherlink.com 1.10,2013-05-10 01:34:00,
2013-05-09 20:49:00,61.0,60.0,29.83,ESE,116,4.0,5.0,95,0.08,,,0.15,weatherlink.com 1.10,2013-05-10 01:49:00,
2013-05-09 21:04:00,61.0,60.0,29.84,East,98,7.0,8.0,96,0.10,,,0.17,weatherlink.com 1.10,2013-05-10 02:04:00,
2013-05-09 21:19:00,56.1,54.0,29.84,East,87,6.0,9.0,91,0.06,,,0.18,weatherlink.com 1.10,2013-05-10 02:19:00,
2013-05-09 21:34:00,52.5,50.0,29.84,East,101,6.0,10.0,92,0.06,,,0.19,weatherlink.com 1.10,2013-05-10 02:34:00,
2013-05-09 21:49:00,51.6,50.0,29.84,SE,124,4.0,11.0,94,0.05,,,0.20,weatherlink.com 1.10,2013-05-10 02:49:00,
2013-05-09 22:04:00,51.2,50.0,29.84,East,88,3.0,10.0,94,0.04,,,0.21,weatherlink.com 1.10,2013-05-10 03:04:00,
2013-05-09 22:19:00,51.2,50.0,29.83,ENE,78,7.0,9.0,95,0.03,,,0.21,weatherlink.com 1.10,2013-05-10 03:19:00,
2013-05-09 22:35:00,50.8,50.0,29.83,East,87,6.0,10.0,95,0.02,,,0.21,weatherlink.com 1.10,2013-05-10 03:35:00,
2013-05-09 22:49:00,50.4,49.0,29.83,East,101,7.0,8.0,94,0.01,,,0.21,weatherlink.com 1.10,2013-05-10 03:49:00,
2013-05-09 23:04:00,50.1,49.0,29.83,ENE,78,5.0,9.0,95,0.00,,,0.21,weatherlink.com 1.10,2013-05-10 04:04:00,
2013-05-09 23:20:00,49.7,48.0,29.83,ESE,115,5.0,10.0,94,0.00,,,0.21,weatherlink.com 1.10,2013-05-10 04:20:00,
2013-05-09 23:35:00,49.4,48.0,29.82,ENE,75,5.0,9.0,95,0.00,,,0.21,weatherlink.com 1.10,2013-05-10 04:35:00,
2013-05-09 23:50:00,49.2,48.0,29.82,East,98,5.0,10.0,95,0.00,,,0.21,weatherlink.com 1.10,2013-05-10 04:50:00,